アンカレッジ/テッド・スティーブンス の空港の天気 - METARとTAF

テッド・スティーブンス・アンカレッジ国際空港 ( PANC / ANC ) - アメリカ アラスカ州アンカレッジ
飛行場実況気象(Metar)
観測時間04/21 06:53 AKDT (04/21 14:53 UTC)
風向・風速北 3m/s
視程10km以上
天気現象
少しの雲 雲底高度 520m
全天の4割程度の雲 雲底高度 1980m
全天の8割程度の雲 雲底高度 2440m
気温1.1℃
湿度79%
気圧993.8hPa
METARPANC 211453Z COR 36005KT 10SM FEW017 SCT065 BKN080 01/M02 A2934 RMK AO2 SLP938 T00111022 58037 VISNO N $
過去の天気等 Google飛行場航空写真 Wunderground天気予報

過去48時間のMETAR

飛行場予報(TAF)
発表時間: 4/21 07:05 AKDT (4/21 15:05 UTC)
予報対象時間: 21日7時 AKDT ~ 22日10時 AKDT
風向・風速不定 3m/s
視程10km以上
全天の4割程度の雲 雲底高度 550m
全天を覆う雲 雲底高度 1830m
21日18時 AKDT から
風向・風速南 6m/s 瞬間風速 10m/s
視程10km以上
天気現象周辺でしゅう雨
全天の4割程度の雲 雲底高度 910m
全天を覆う雲 雲底高度 1520m
22日3時 AKDT から
風向・風速南 3m/s
視程10km以上
天気現象周辺でしゅう雨
全天の8割程度の雲 雲底高度 1520m
PANC 211505Z 2115/2218 VRB06KT P6SM SCT018 OVC060
FM220200 17012G20KT P6SM VCSH SCT030 OVC050
FM221100 18006KT P6SM VCSH BKN050